createdAt,value
2022-11-19T00:01:24.273Z,11.50
2022-11-19T00:03:53.171Z,11.48
2022-11-19T00:06:22.713Z,11.63
2022-11-19T00:08:49.644Z,11.70
2022-11-19T00:11:38.069Z,11.13
2022-11-19T00:14:05.400Z,11.88
2022-11-19T00:16:32.640Z,11.48
2022-11-19T00:18:59.942Z,12.00
2022-11-19T00:21:26.869Z,12.93
2022-11-19T00:23:54.827Z,13.52
2022-11-19T00:26:22.540Z,12.30
2022-11-19T00:28:49.830Z,12.63
2022-11-19T00:31:17.834Z,13.15
2022-11-19T00:33:46.096Z,13.13
2022-11-19T00:36:15.470Z,13.32
2022-11-19T00:38:42.796Z,13.63
2022-11-19T00:41:09.867Z,13.32
2022-11-19T00:43:49.735Z,13.60
2022-11-19T00:46:28.869Z,13.50
2022-11-19T00:48:58.055Z,13.77
2022-11-19T00:51:29.136Z,13.75
2022-11-19T00:53:57.028Z,13.13
2022-11-19T00:56:25.645Z,12.55
2022-11-19T00:58:53.113Z,13.05
2022-11-19T01:01:22.646Z,13.65
2022-11-19T01:03:50.211Z,14.25
2022-11-19T01:06:19.871Z,13.45
2022-11-19T01:08:51.557Z,13.63
2022-11-19T01:11:30.588Z,13.38
2022-11-19T01:13:59.008Z,13.70
2022-11-19T01:16:27.147Z,14.32
2022-11-19T01:18:54.122Z,13.73
2022-11-19T01:21:22.859Z,13.88
2022-11-19T01:23:50.340Z,13.43
2022-11-19T01:26:18.711Z,14.20
2022-11-19T01:28:46.553Z,14.18
2022-11-19T01:31:22.277Z,13.75
2022-11-19T01:33:49.404Z,12.68
2022-11-19T01:36:19.005Z,14.43
2022-11-19T01:38:51.063Z,13.40
2022-11-19T01:41:21.902Z,11.90
2022-11-19T01:43:53.652Z,13.07
2022-11-19T01:46:23.081Z,13.90
2022-11-19T01:49:02.136Z,12.73
2022-11-19T01:51:47.238Z,12.82
2022-11-19T01:54:39.512Z,12.18
2022-11-19T01:57:10.588Z,13.73
2022-11-19T01:59:38.544Z,13.05
2022-11-19T02:02:05.979Z,13.20
2022-11-19T02:04:33.766Z,14.35
2022-11-19T02:07:01.091Z,14.50
2022-11-19T02:09:29.181Z,13.02
2022-11-19T02:12:15.063Z,12.75
2022-11-19T02:14:42.273Z,13.55
2022-11-19T02:17:38.229Z,12.48
2022-11-19T02:20:23.861Z,13.73
2022-11-19T02:23:02.191Z,12.23
2022-11-19T02:25:41.523Z,13.48
2022-11-19T02:28:32.204Z,12.98
2022-11-19T02:31:17.072Z,12.85
2022-11-19T02:34:09.544Z,13.23
2022-11-19T02:36:44.613Z,13.23
2022-11-19T02:39:33.367Z,13.13
2022-11-19T02:42:20.109Z,13.10
2022-11-19T02:44:58.800Z,13.60
2022-11-19T02:47:52.613Z,13.40
2022-11-19T02:50:30.324Z,13.32
2022-11-19T02:52:57.726Z,13.07
2022-11-19T02:55:24.993Z,12.60
2022-11-19T02:57:54.800Z,13.88
2022-11-19T03:00:41.211Z,12.98
2022-11-19T03:03:36.578Z,13.52
2022-11-19T03:06:20.098Z,12.77
2022-11-19T03:08:47.657Z,13.40
2022-11-19T03:11:27.170Z,13.40
2022-11-19T03:14:33.690Z,13.88
2022-11-19T03:17:25.532Z,13.75
2022-11-19T03:19:52.753Z,13.35
2022-11-19T03:22:28.502Z,13.35
2022-11-19T03:25:20.358Z,12.65
2022-11-19T03:27:50.878Z,14.70
2022-11-19T03:30:20.007Z,14.63
2022-11-19T03:32:47.206Z,14.57
2022-11-19T03:35:19.425Z,14.40
2022-11-19T03:37:52.633Z,14.23
2022-11-19T03:40:22.660Z,13.25
2022-11-19T03:42:53.195Z,13.57
2022-11-19T03:45:28.435Z,13.30
2022-11-19T03:47:57.343Z,13.93
2022-11-19T03:50:37.812Z,15.10
2022-11-19T03:53:04.896Z,14.32
2022-11-19T03:55:37.137Z,13.10
2022-11-19T03:58:06.220Z,15.82
2022-11-19T04:00:33.523Z,14.88
2022-11-19T04:03:01.197Z,14.35
2022-11-19T04:05:28.427Z,14.75
2022-11-19T04:07:55.306Z,14.25
2022-11-19T04:10:22.152Z,15.93
2022-11-19T04:12:49.381Z,14.82
2022-11-19T04:15:16.774Z,14.52
2022-11-19T04:17:44.111Z,15.15
2022-11-19T04:20:11.420Z,14.13
2022-11-19T04:22:38.681Z,14.10
2022-11-19T04:25:05.985Z,13.82
2022-11-19T04:27:32.865Z,14.15
2022-11-19T04:29:59.718Z,13.93
2022-11-19T04:32:27.085Z,13.77
2022-11-19T04:34:54.337Z,13.68
2022-11-19T04:37:21.211Z,13.07
2022-11-19T04:39:48.031Z,14.18
2022-11-19T04:42:15.368Z,13.57
2022-11-19T04:44:42.601Z,13.13
2022-11-19T04:47:09.687Z,13.95
2022-11-19T04:49:37.004Z,13.02
2022-11-19T04:52:04.177Z,13.48
2022-11-19T04:54:30.999Z,15.15
2022-11-19T04:56:57.862Z,13.95
2022-11-19T04:59:24.698Z,12.55
2022-11-19T05:01:52.237Z,13.75
2022-11-19T05:04:19.167Z,14.68
2022-11-19T05:06:46.032Z,14.10
2022-11-19T05:09:13.492Z,13.60
2022-11-19T05:11:40.337Z,13.30
2022-11-19T05:14:07.190Z,14.20
2022-11-19T05:16:34.108Z,13.13
2022-11-19T05:19:01.309Z,13.77
2022-11-19T05:21:28.601Z,14.18
2022-11-19T05:23:55.460Z,13.52
2022-11-19T05:26:22.674Z,13.57
2022-11-19T05:28:49.522Z,13.98
2022-11-19T05:31:16.397Z,13.57
2022-11-19T05:33:43.301Z,12.82
2022-11-19T05:36:10.287Z,12.80
2022-11-19T05:38:37.605Z,12.35
2022-11-19T05:41:04.818Z,12.68
2022-11-19T05:43:31.685Z,12.85
2022-11-19T05:46:02.821Z,12.93
2022-11-19T05:48:30.299Z,13.27
2022-11-19T05:50:57.544Z,13.65
2022-11-19T05:53:24.420Z,12.65
2022-11-19T05:55:51.256Z,13.25
2022-11-19T05:58:18.106Z,12.60
2022-11-19T06:00:44.980Z,13.57
2022-11-19T06:03:12.225Z,13.32
2022-11-19T06:05:40.702Z,13.25
2022-11-19T06:08:08.069Z,13.75
2022-11-19T06:10:34.908Z,13.40
2022-11-19T06:13:02.178Z,13.25
2022-11-19T06:15:29.467Z,13.00
2022-11-19T06:17:57.208Z,13.20
2022-11-19T06:20:24.304Z,13.93
2022-11-19T06:22:52.007Z,13.80
2022-11-19T06:25:19.259Z,17.90
2022-11-19T06:27:46.206Z,16.08
2022-11-19T06:30:14.139Z,14.73
2022-11-19T06:32:41.388Z,13.70
2022-11-19T06:35:08.804Z,12.43
2022-11-19T06:37:36.038Z,13.85
2022-11-19T06:40:03.945Z,13.95
2022-11-19T06:42:37.016Z,12.85
2022-11-19T06:47:32.806Z,12.90
2022-11-19T06:49:59.910Z,14.68
2022-11-19T06:52:27.288Z,14.88
2022-11-19T06:54:54.147Z,14.20
2022-11-19T06:57:21.046Z,13.43
2022-11-19T06:59:48.305Z,15.02
2022-11-19T07:02:20.265Z,14.27
2022-11-19T07:07:15.031Z,14.18
2022-11-19T07:09:42.049Z,14.18
2022-11-19T07:12:09.728Z,14.45
2022-11-19T07:14:36.654Z,16.17
2022-11-19T07:17:05.095Z,23.00
2022-11-19T07:19:32.461Z,15.48
2022-11-19T07:21:59.771Z,13.30
2022-11-19T07:24:26.881Z,14.27
2022-11-19T07:26:55.264Z,13.55
2022-11-19T07:29:22.809Z,13.85
2022-11-19T07:31:51.033Z,14.50
2022-11-19T07:34:18.394Z,13.68
2022-11-19T07:36:46.108Z,14.63
2022-11-19T07:39:13.398Z,13.15
2022-11-19T07:41:58.842Z,13.02
2022-11-19T07:44:26.133Z,13.60
2022-11-19T07:46:53.411Z,13.40
2022-11-19T07:49:20.991Z,14.63
2022-11-19T07:51:48.649Z,14.15
2022-11-19T07:54:15.703Z,12.93
2022-11-19T07:56:43.212Z,14.73
2022-11-19T07:59:10.497Z,14.52
2022-11-19T08:01:37.546Z,13.70
2022-11-19T08:04:05.309Z,13.82
2022-11-19T08:06:34.465Z,12.95
2022-11-19T08:09:03.967Z,12.35
2022-11-19T08:11:31.418Z,12.05
2022-11-19T08:14:01.963Z,12.02
2022-11-19T08:16:48.492Z,13.65
2022-11-19T08:19:16.807Z,12.48
2022-11-19T08:21:45.781Z,13.07
2022-11-19T08:24:13.982Z,13.13
2022-11-19T08:26:41.144Z,13.88
2022-11-19T08:29:14.666Z,13.38
2022-11-19T08:31:45.049Z,13.77
2022-11-19T08:34:11.972Z,14.50
2022-11-19T08:36:39.210Z,17.83
2022-11-19T08:39:06.854Z,15.82
2022-11-19T08:41:52.885Z,14.95
2022-11-19T08:44:20.296Z,15.00
2022-11-19T08:46:47.749Z,13.45
2022-11-19T08:49:15.266Z,13.50
2022-11-19T08:51:42.293Z,14.98
2022-11-19T08:54:09.764Z,19.45
2022-11-19T08:56:37.046Z,16.40
2022-11-19T08:59:04.266Z,15.27
2022-11-19T09:01:31.779Z,14.68
2022-11-19T09:03:59.160Z,15.35
2022-11-19T09:06:26.324Z,14.93
2022-11-19T09:08:53.995Z,16.73
2022-11-19T09:11:22.449Z,16.42
2022-11-19T09:13:50.821Z,15.52
2022-11-19T09:16:18.240Z,14.10
2022-11-19T09:18:45.876Z,15.13
2022-11-19T09:21:13.368Z,15.20
2022-11-19T09:23:42.499Z,13.95
2022-11-19T09:26:12.643Z,13.70
2022-11-19T09:28:40.160Z,14.93
2022-11-19T09:31:15.298Z,14.43
2022-11-19T09:33:45.842Z,15.10
2022-11-19T09:36:13.409Z,15.77
2022-11-19T09:38:41.094Z,16.65
2022-11-19T09:41:27.901Z,14.80
2022-11-19T09:44:22.966Z,15.32
2022-11-19T09:46:50.339Z,15.65
2022-11-19T09:49:23.590Z,15.10
2022-11-19T09:51:56.262Z,15.18
2022-11-19T09:54:23.715Z,16.02
2022-11-19T09:56:54.286Z,14.75
2022-11-19T09:59:28.632Z,16.38
2022-11-19T10:01:55.570Z,15.98
2022-11-19T10:04:26.138Z,14.98
2022-11-19T10:07:28.136Z,14.27
2022-11-19T10:10:21.004Z,14.80
2022-11-19T10:13:12.356Z,14.27
2022-11-19T10:16:00.649Z,13.50
2022-11-19T10:18:36.353Z,14.68
2022-11-19T10:21:19.008Z,15.30
2022-11-19T10:24:02.816Z,14.00
2022-11-19T10:26:36.114Z,15.18
2022-11-19T10:29:14.370Z,15.10
2022-11-19T10:31:46.572Z,15.13
2022-11-19T10:34:28.991Z,14.30
2022-11-19T10:37:22.754Z,15.50
2022-11-19T10:40:10.987Z,16.05
2022-11-19T10:42:42.643Z,16.90
2022-11-19T10:45:17.800Z,16.95
2022-11-19T10:48:22.691Z,16.63
2022-11-19T10:50:50.051Z,15.73
2022-11-19T10:53:36.360Z,15.80
2022-11-19T10:56:14.122Z,16.40
2022-11-19T10:59:03.965Z,16.63
2022-11-19T11:01:38.140Z,16.13
2022-11-19T11:04:05.701Z,16.52
2022-11-19T11:06:50.603Z,15.93
2022-11-19T11:09:41.593Z,14.95
2022-11-19T11:12:27.600Z,16.85
2022-11-19T11:15:01.080Z,16.67
2022-11-19T11:17:30.870Z,16.45
2022-11-19T11:20:08.039Z,15.13
2022-11-19T11:22:36.422Z,15.25
2022-11-19T11:25:07.356Z,16.17
2022-11-19T11:27:35.829Z,14.85
2022-11-19T11:30:12.088Z,15.93
2022-11-19T11:32:40.240Z,17.52
2022-11-19T11:35:34.567Z,16.02
2022-11-19T11:38:02.948Z,16.45
2022-11-19T11:40:31.318Z,17.67
2022-11-19T11:42:58.735Z,21.10
2022-11-19T11:45:25.595Z,17.63
2022-11-19T11:47:53.197Z,18.70
2022-11-19T11:50:27.004Z,17.42
2022-11-19T11:52:56.202Z,17.42
2022-11-19T11:55:25.860Z,18.10
2022-11-19T11:57:53.135Z,19.20
2022-11-19T12:00:42.914Z,14.15
2022-11-19T12:03:10.294Z,14.85
2022-11-19T12:06:09.158Z,16.23
2022-11-19T12:09:08.729Z,15.77
2022-11-19T12:11:54.846Z,18.75
2022-11-19T12:14:29.766Z,17.25
2022-11-19T12:17:10.331Z,16.35
2022-11-19T12:19:58.163Z,17.83
2022-11-19T12:22:36.561Z,17.83
2022-11-19T12:25:26.908Z,16.67
2022-11-19T12:28:06.931Z,15.95
2022-11-19T12:30:36.823Z,16.65
2022-11-19T12:33:30.761Z,14.55
2022-11-19T12:36:06.824Z,16.35
2022-11-19T12:38:59.835Z,13.68
2022-11-19T12:42:01.581Z,14.55
2022-11-19T12:44:43.287Z,15.15
2022-11-19T12:47:29.881Z,15.43
2022-11-19T12:50:21.590Z,16.02
2022-11-19T12:53:00.249Z,16.90
2022-11-19T12:55:47.961Z,14.73
2022-11-19T12:59:08.770Z,14.15
2022-11-19T13:01:41.778Z,13.00
2022-11-19T13:06:53.417Z,13.05
2022-11-19T13:09:38.631Z,13.48
2022-11-19T13:12:09.620Z,12.73
2022-11-19T13:14:43.852Z,14.25
2022-11-19T13:17:17.994Z,12.10
2022-11-19T13:19:49.338Z,13.85
2022-11-19T13:22:26.213Z,13.15
2022-11-19T13:25:01.196Z,13.38
2022-11-19T13:27:30.556Z,13.15
2022-11-19T13:30:04.475Z,12.43
2022-11-19T13:32:52.869Z,13.27
2022-11-19T13:35:29.172Z,13.68
2022-11-19T13:37:58.663Z,13.55
2022-11-19T13:40:37.359Z,13.05
2022-11-19T13:43:32.213Z,12.88
2022-11-19T13:46:11.655Z,11.98
2022-11-19T13:48:59.635Z,12.70
2022-11-19T13:51:34.147Z,12.93
2022-11-19T13:54:03.852Z,12.43
2022-11-19T13:56:50.125Z,13.70
2022-11-19T13:59:29.628Z,13.63
2022-11-19T14:02:17.219Z,12.23
2022-11-19T14:05:05.548Z,12.98
2022-11-19T14:07:51.503Z,13.65
2022-11-19T14:10:21.201Z,15.25
2022-11-19T14:13:11.628Z,13.63
2022-11-19T14:16:02.754Z,13.45
2022-11-19T14:18:54.642Z,14.52
2022-11-19T14:21:42.936Z,12.27
2022-11-19T14:24:46.067Z,13.40
2022-11-19T14:27:17.459Z,14.90
2022-11-19T14:29:44.705Z,15.02
2022-11-19T14:32:11.925Z,14.80
2022-11-19T14:35:02.256Z,14.63
2022-11-19T14:37:37.803Z,14.43
2022-11-19T14:40:13.333Z,14.30
2022-11-19T14:43:18.896Z,15.55
2022-11-19T14:46:04.710Z,13.10
2022-11-19T14:48:41.051Z,14.13
2022-11-19T14:51:12.914Z,16.30
2022-11-19T14:54:19.781Z,16.75
2022-11-19T14:56:59.377Z,15.55
2022-11-19T14:59:29.422Z,16.75
2022-11-19T15:02:01.253Z,16.58
2022-11-19T15:04:36.425Z,16.10
2022-11-19T15:07:11.731Z,16.48
2022-11-19T15:10:19.920Z,16.10
2022-11-19T15:12:50.541Z,16.70
2022-11-19T15:15:20.388Z,17.15
2022-11-19T15:17:49.103Z,17.85
2022-11-19T15:20:30.375Z,17.35
2022-11-19T15:23:03.530Z,16.67
2022-11-19T15:25:42.726Z,18.38
2022-11-19T15:28:23.500Z,17.23
2022-11-19T15:31:13.313Z,18.33
2022-11-19T15:34:04.840Z,17.05
2022-11-19T15:36:52.226Z,17.35
2022-11-19T15:39:35.871Z,15.52
2022-11-19T15:42:11.750Z,17.23
2022-11-19T15:45:08.179Z,16.02
2022-11-19T15:47:41.551Z,16.58
2022-11-19T15:50:22.993Z,12.90
2022-11-19T15:53:01.262Z,15.13
2022-11-19T15:55:33.399Z,13.00
2022-11-19T15:58:12.483Z,12.52
2022-11-19T16:00:50.732Z,18.23
2022-11-19T16:03:18.903Z,16.23
2022-11-19T16:06:00.575Z,16.02
2022-11-19T16:08:28.388Z,20.70
2022-11-19T16:11:20.211Z,18.92
2022-11-19T16:14:12.910Z,15.32
2022-11-19T16:16:58.536Z,16.40
2022-11-19T16:19:25.925Z,18.10
2022-11-19T16:22:02.368Z,16.83
2022-11-19T16:24:49.350Z,19.10
2022-11-19T16:27:24.461Z,17.95
2022-11-19T16:29:51.868Z,18.40
2022-11-19T16:32:21.416Z,18.35
2022-11-19T16:34:48.633Z,18.58
2022-11-19T16:37:19.243Z,17.40
2022-11-19T16:39:51.041Z,18.35
2022-11-19T16:42:23.077Z,18.92
2022-11-19T16:44:55.258Z,18.13
2022-11-19T16:47:36.614Z,19.65
2022-11-19T16:50:31.599Z,18.52
2022-11-19T16:53:01.312Z,19.80
2022-11-19T16:55:29.044Z,21.17
2022-11-19T16:57:58.637Z,21.35
2022-11-19T17:00:33.145Z,18.63
2022-11-19T17:03:02.169Z,17.60
2022-11-19T17:05:29.405Z,17.98
2022-11-19T17:08:06.559Z,18.85
2022-11-19T17:10:34.756Z,20.58
2022-11-19T17:13:15.413Z,18.67
2022-11-19T17:15:45.369Z,20.25
2022-11-19T17:18:21.736Z,22.92
2022-11-19T17:20:55.467Z,21.45
2022-11-19T17:23:28.306Z,21.73
2022-11-19T17:26:04.592Z,23.38
2022-11-19T17:28:41.370Z,24.35
2022-11-19T17:31:28.560Z,23.73
2022-11-19T17:34:12.447Z,27.33
2022-11-19T17:36:39.982Z,119.95
2022-11-19T17:39:14.816Z,36.88
2022-11-19T17:42:02.135Z,25.73
2022-11-19T17:44:40.447Z,24.73
2022-11-19T17:47:22.774Z,23.42
2022-11-19T17:49:50.962Z,24.02
2022-11-19T17:52:20.385Z,22.98
2022-11-19T17:54:49.056Z,22.23
2022-11-19T17:57:16.445Z,24.38
2022-11-19T17:59:43.460Z,24.58
2022-11-19T18:02:15.379Z,24.85
2022-11-19T18:04:46.854Z,30.23
2022-11-19T18:07:14.681Z,28.10
2022-11-19T18:09:42.031Z,31.75
2022-11-19T18:12:15.506Z,34.88
2022-11-19T18:14:42.922Z,36.92
2022-11-19T18:17:14.815Z,36.53
2022-11-19T18:19:42.143Z,36.72
2022-11-19T18:22:20.247Z,42.63
2022-11-19T18:24:51.584Z,45.88
2022-11-19T18:27:18.628Z,44.90
2022-11-19T18:29:45.955Z,46.92
2022-11-19T18:32:16.055Z,49.03
2022-11-19T18:34:44.774Z,46.58
2022-11-19T18:37:12.132Z,49.67
2022-11-19T18:39:39.017Z,52.42
2022-11-19T18:42:05.998Z,53.00
2022-11-19T18:44:35.767Z,56.53
2022-11-19T18:47:06.765Z,61.63
2022-11-19T18:49:35.005Z,62.90
2022-11-19T18:52:03.336Z,60.15
2022-11-19T18:54:30.598Z,61.47
2022-11-19T18:56:57.617Z,63.55
2022-11-19T18:59:24.644Z,61.25
2022-11-19T19:01:52.282Z,62.83
2022-11-19T19:04:19.780Z,62.55
2022-11-19T19:06:46.737Z,62.22
2022-11-19T19:09:20.204Z,60.85
2022-11-19T19:12:12.687Z,60.10
2022-11-19T19:14:41.277Z,57.25
2022-11-19T19:17:08.612Z,149.90
2022-11-19T19:19:36.083Z,58.17
2022-11-19T19:22:03.404Z,57.80
2022-11-19T19:24:31.492Z,54.40
2022-11-19T19:26:59.738Z,55.03
2022-11-19T19:29:27.101Z,50.90
2022-11-19T19:31:54.220Z,50.72
2022-11-19T19:34:21.216Z,48.35
2022-11-19T19:36:52.964Z,51.72
2022-11-19T19:39:21.234Z,50.10
2022-11-19T19:41:49.389Z,52.22
2022-11-19T19:44:16.486Z,55.60
2022-11-19T19:46:43.705Z,54.83
2022-11-19T19:49:10.553Z,54.47
2022-11-19T19:51:37.809Z,53.17
2022-11-19T19:54:04.747Z,62.17
2022-11-19T19:56:32.776Z,61.08
2022-11-19T19:59:00.966Z,57.95
2022-11-19T20:01:33.167Z,57.75
2022-11-19T20:04:10.726Z,51.88
2022-11-19T20:06:43.877Z,42.97
2022-11-19T20:09:10.786Z,45.65
2022-11-19T20:11:37.904Z,40.90
2022-11-19T20:14:05.393Z,41.03
2022-11-19T20:16:33.977Z,37.05
2022-11-19T20:19:01.537Z,39.63
2022-11-19T20:21:35.949Z,32.47
2022-11-19T20:24:08.740Z,36.28
2022-11-19T20:26:39.518Z,34.42
2022-11-19T20:29:06.840Z,26.58
2022-11-19T20:31:34.966Z,33.65
2022-11-19T20:34:04.338Z,33.95
2022-11-19T20:36:34.400Z,32.17
2022-11-19T20:39:02.230Z,30.40
2022-11-19T20:41:47.925Z,30.10
2022-11-19T20:44:25.466Z,32.13
2022-11-19T20:46:56.227Z,30.13
2022-11-19T20:49:25.710Z,28.50
2022-11-19T20:51:53.189Z,29.98
2022-11-19T20:54:21.652Z,174.20
2022-11-19T20:56:49.571Z,34.25
2022-11-19T20:59:16.812Z,31.08
2022-11-19T21:01:43.856Z,28.83
2022-11-19T21:04:11.893Z,29.40
2022-11-19T21:06:39.184Z,29.42
2022-11-19T21:09:06.475Z,28.83
2022-11-19T21:11:34.130Z,27.52
2022-11-19T21:14:01.679Z,28.13
2022-11-19T21:16:29.111Z,27.80
2022-11-19T21:18:56.461Z,29.42
2022-11-19T21:21:26.625Z,31.15
2022-11-19T21:23:54.342Z,32.38
2022-11-19T21:26:23.436Z,33.13
2022-11-19T21:28:53.458Z,29.17
2022-11-19T21:31:38.115Z,31.73
2022-11-19T21:34:09.308Z,32.40
2022-11-19T21:36:36.789Z,32.13
2022-11-19T21:39:06.917Z,34.30
2022-11-19T21:41:34.700Z,33.55
2022-11-19T21:44:02.472Z,32.17
2022-11-19T21:46:29.732Z,32.25
2022-11-19T21:48:56.984Z,33.30
2022-11-19T21:51:25.244Z,32.83
2022-11-19T21:53:56.228Z,33.92
2022-11-19T21:56:23.845Z,33.40
2022-11-19T21:58:50.992Z,32.45
2022-11-19T22:01:18.415Z,32.55
2022-11-19T22:03:45.330Z,29.42
2022-11-19T22:06:12.392Z,33.95
2022-11-19T22:08:41.129Z,29.45
2022-11-19T22:11:27.570Z,34.65
2022-11-19T22:13:55.326Z,34.33
2022-11-19T22:16:22.640Z,34.83
2022-11-19T22:18:49.902Z,27.27
2022-11-19T22:21:17.128Z,32.83
2022-11-19T22:23:44.021Z,34.47
2022-11-19T22:26:12.589Z,35.47
2022-11-19T22:28:39.798Z,36.17
2022-11-19T22:31:07.127Z,34.78
2022-11-19T22:33:37.720Z,36.13
2022-11-19T22:36:10.031Z,40.28
2022-11-19T22:38:38.990Z,34.70
2022-11-19T22:41:16.807Z,36.35
2022-11-19T22:43:44.579Z,36.88
2022-11-19T22:46:15.277Z,40.50
2022-11-19T22:48:42.429Z,41.90
2022-11-19T22:51:11.295Z,43.17
2022-11-19T22:53:38.712Z,42.17
2022-11-19T22:56:08.888Z,42.17
2022-11-19T22:58:36.721Z,45.25
2022-11-19T23:01:05.749Z,42.03
2022-11-19T23:03:33.164Z,92.82
2022-11-19T23:06:00.124Z,39.45
2022-11-19T23:08:27.392Z,33.25
2022-11-19T23:10:59.251Z,39.35
2022-11-19T23:13:32.185Z,37.72
2022-11-19T23:16:09.647Z,38.75
2022-11-19T23:18:51.251Z,36.63
2022-11-19T23:21:20.821Z,38.35
2022-11-19T23:23:48.458Z,40.03
2022-11-19T23:26:18.041Z,40.10
2022-11-19T23:28:45.681Z,67.22
2022-11-19T23:31:19.782Z,34.20
2022-11-19T23:33:47.505Z,36.47
2022-11-19T23:36:16.751Z,33.13
2022-11-19T23:38:44.434Z,33.83
2022-11-19T23:41:14.006Z,35.47
2022-11-19T23:43:41.158Z,36.00
2022-11-19T23:46:35.133Z,31.75
2022-11-19T23:49:03.417Z,32.92
2022-11-19T23:51:33.399Z,33.90
2022-11-19T23:54:00.900Z,26.38
2022-11-19T23:56:29.963Z,32.53
2022-11-19T23:58:57.352Z,23.52
